Time;durP1;ratioP1;P1;durP2;ratioP2;P2;SDS_P1;SDS_P2;PMS_P1;PMS_P2;Temp;Humidity;BMP_temperature;BMP_pressure;BME280_temperature;BME280_humidity;BME280_pressure;Samples;Min_cycle;Max_cycle;Signal;HPM_P1;HPM_P2
2022/06/09 00:00:34;;;;;;;0.5;0.5;;;;;;;14.63;92.72559;933.0745;;;;
2022/06/09 00:03:03;;;;;;;1.7;0.5;;;;;;;14.54;92.77344;933.0668;;;;
2022/06/09 00:05:33;;;;;;;1.4;0.6;;;;;;;14.32;92.83105;933.0717;;;;
2022/06/09 00:07:58;;;;;;;0.9;0.6;;;;;;;14.31;93.51953;933.1398;;;;
2022/06/09 00:10:24;;;;;;;0.6;0.6;;;;;;;14.34;93.43555;933.1138;;;;
2022/06/09 00:12:50;;;;;;;0.8;0.7;;;;;;;14.16;93.94922;933.1286;;;;
2022/06/09 00:15:34;;;;;;;1.3;0.7;;;;;;;14.22;93.80176;933.1609;;;;
2022/06/09 00:18:01;;;;;;;1.4;0.7;;;;;;;14.34;93.66406;933.1587;;;;
2022/06/09 00:20:26;;;;;;;0.7;0.7;;;;;;;14.41;93.94434;933.1609;;;;
2022/06/09 00:22:54;;;;;;;0.7;0.6;;;;;;;14.11;94.86035;933.0708;;;;
2022/06/09 00:25:20;;;;;;;2;0.8;;;;;;;14.24;94.64453;933.1512;;;;
2022/06/09 00:27:45;;;;;;;1.1;0.7;;;;;;;14.3;93.90918;933.16;;;;
2022/06/09 00:30:17;;;;;;;1.2;0.7;;;;;;;14.29;94.47168;933.1994;;;;
2022/06/09 00:32:42;;;;;;;0.7;0.6;;;;;;;14.31;94.07227;933.1574;;;;
2022/06/09 00:35:10;;;;;;;1;0.6;;;;;;;14.34;94.5166;933.1707;;;;
2022/06/09 00:37:35;;;;;;;0.6;0.5;;;;;;;14.38;93.5127;933.0804;;;;
2022/06/09 00:40:01;;;;;;;0.7;0.5;;;;;;;14.21;93.84375;933.1528;;;;
2022/06/09 00:42:29;;;;;;;1.2;0.5;;;;;;;14.24;94.27832;933.1711;;;;
2022/06/09 00:44:54;;;;;;;0.6;0.5;;;;;;;14.32;94.83496;933.1581;;;;
2022/06/09 00:47:19;;;;;;;1.3;0.6;;;;;;;14.2;94.80957;933.1097;;;;
2022/06/09 00:49:44;;;;;;;0.9;0.6;;;;;;;14.22;94.14551;933.024;;;;
2022/06/09 00:52:09;;;;;;;0.7;0.6;;;;;;;14.3;94.75;933.1543;;;;
2022/06/09 00:54:34;;;;;;;0.7;0.7;;;;;;;14.27;95.14746;933.1467;;;;
2022/06/09 00:56:59;;;;;;;1.9;0.6;;;;;;;14.34;94.05762;933.165;;;;
2022/06/09 00:59:26;;;;;;;0.5;0.5;;;;;;;14.14;93.48535;933.1553;;;;
2022/06/09 01:01:51;;;;;;;1.6;0.7;;;;;;;14.27;93.05176;933.1804;;;;
2022/06/09 01:04:17;;;;;;;0.6;0.6;;;;;;;14.27;92.87695;933.17;;;;
2022/06/09 01:06:48;;;;;;;1.1;0.6;;;;;;;14.33;93.05176;933.1772;;;;
2022/06/09 01:09:13;;;;;;;0.5;0.5;;;;;;;14.38;93.88086;933.1189;;;;
2022/06/09 01:11:38;;;;;;;1.7;0.8;;;;;;;14.34;94.0918;933.1987;;;;
2022/06/09 01:14:03;;;;;;;1.3;0.8;;;;;;;14.29;93.25293;933.1961;;;;
2022/06/09 01:16:30;;;;;;;2.2;0.8;;;;;;;14.31;92.28906;933.215;;;;
2022/06/09 01:18:55;;;;;;;0.7;0.7;;;;;;;14.18;93.74414;933.1188;;;;
2022/06/09 01:21:21;;;;;;;0.6;0.4;;;;;;;14.14;94.21973;933.2073;;;;
2022/06/09 01:23:46;;;;;;;1.2;0.6;;;;;;;14.28;93.57129;933.2314;;;;
2022/06/09 01:26:11;;;;;;;0.9;0.9;;;;;;;14.34;93.19141;933.1947;;;;
2022/06/09 01:28:40;;;;;;;0.7;0.7;;;;;;;14.19;94.21973;933.2067;;;;
2022/06/09 01:31:05;;;;;;;0.5;0.5;;;;;;;14.25;94.52148;933.2271;;;;
2022/06/09 01:33:30;;;;;;;1.2;0.5;;;;;;;14.28;94.25098;933.1714;;;;
2022/06/09 01:35:55;;;;;;;0.8;0.6;;;;;;;14.19;94.64648;933.2444;;;;
2022/06/09 01:38:20;;;;;;;1.8;1.1;;;;;;;14.18;94.02246;933.2133;;;;
2022/06/09 01:40:46;;;;;;;0.8;0.6;;;;;;;14.25;93.42773;933.2399;;;;
2022/06/09 01:43:11;;;;;;;0.9;0.5;;;;;;;14.26;93.37012;933.2198;;;;
2022/06/09 01:45:36;;;;;;;2.1;0.6;;;;;;;14.25;93.49707;933.1671;;;;
2022/06/09 01:48:02;;;;;;;0.5;0.5;;;;;;;14.22;93.99805;933.1714;;;;
2022/06/09 01:50:27;;;;;;;0.5;0.5;;;;;;;14.19;94.38086;933.1811;;;;
2022/06/09 01:52:52;;;;;;;1.8;0.4;;;;;;;14.33;94.62988;933.2148;;;;
2022/06/09 01:55:17;;;;;;;0.5;0.5;;;;;;;14.36;94.35938;933.1175;;;;
2022/06/09 01:57:43;;;;;;;0.9;0.8;;;;;;;14.22;94.70996;933.1547;;;;
2022/06/09 02:00:08;;;;;;;2.5;1;;;;;;;14.19;94.92285;933.1418;;;;
2022/06/09 02:02:33;;;;;;;2.3;0.5;;;;;;;14.16;95.27539;933.1174;;;;
2022/06/09 02:04:58;;;;;;;1.5;0.6;;;;;;;14.16;95.14648;933.1286;;;;
2022/06/09 02:07:23;;;;;;;0.9;0.9;;;;;;;14.34;94.33203;933.1411;;;;
2022/06/09 02:09:48;;;;;;;0.8;0.7;;;;;;;14.33;94.09961;933.1019;;;;
2022/06/09 02:12:14;;;;;;;0.6;0.6;;;;;;;14.33;94.52539;933.0764;;;;
2022/06/09 02:14:39;;;;;;;1.2;0.9;;;;;;;14.34;94.7002;933.0642;;;;
2022/06/09 02:17:04;;;;;;;1.3;1;;;;;;;14.31;94.64844;933.0517;;;;
2022/06/09 02:19:29;;;;;;;0.8;0.8;;;;;;;14.31;94.45313;933.0829;;;;
2022/06/09 02:21:54;;;;;;;1.2;0.7;;;;;;;14.22;94.49121;933.0945;;;;
2022/06/09 02:24:19;;;;;;;1.1;0.6;;;;;;;14.15;94.29297;933.0503;;;;
2022/06/09 02:26:45;;;;;;;0.6;0.6;;;;;;;14.19;94.44824;933.0506;;;;
2022/06/09 02:29:11;;;;;;;1.5;0.6;;;;;;;14.31;93.94629;933.1069;;;;
2022/06/09 02:31:36;;;;;;;0.9;0.5;;;;;;;14.21;94.9375;933.0863;;;;
2022/06/09 02:34:01;;;;;;;1;0.6;;;;;;;14.08;95.57617;933.1512;;;;
2022/06/09 02:36:27;;;;;;;0.5;0.5;;;;;;;14.13;94.54004;933.1546;;;;
2022/06/09 02:38:52;;;;;;;1;0.8;;;;;;;14.18;94.63086;933.1404;;;;
2022/06/09 02:41:19;;;;;;;1.8;0.8;;;;;;;14.16;95.02051;933.0989;;;;
2022/06/09 02:43:44;;;;;;;2.7;0.8;;;;;;;14.07;94.58594;933.1209;;;;
2022/06/09 02:46:10;;;;;;;0.6;0.6;;;;;;;14.1;94.69531;933.1478;;;;
2022/06/09 02:48:35;;;;;;;1.5;0.8;;;;;;;14.17;94.40039;933.0892;;;;
2022/06/09 02:51:01;;;;;;;1.2;0.9;;;;;;;14.19;95.12793;933.0651;;;;
2022/06/09 02:53:26;;;;;;;0.8;0.7;;;;;;;14.24;94.875;933.1071;;;;
2022/06/09 02:55:51;;;;;;;0.7;0.7;;;;;;;14.29;95.15137;933.0848;;;;
2022/06/09 02:58:17;;;;;;;2.3;0.7;;;;;;;14.27;95.44727;933.1147;;;;
2022/06/09 03:00:42;;;;;;;0.9;0.8;;;;;;;14.28;95.49512;933.0145;;;;
2022/06/09 03:03:10;;;;;;;1.4;0.8;;;;;;;14.24;95.81934;933.0463;;;;
2022/06/09 03:05:35;;;;;;;0.9;0.7;;;;;;;14.29;94.63281;933.1161;;;;
2022/06/09 03:08:00;;;;;;;2.1;1.1;;;;;;;14.24;94.61035;933.1047;;;;
2022/06/09 03:10:25;;;;;;;1.2;0.8;;;;;;;14.19;93.70215;933.029;;;;
2022/06/09 03:13:14;;;;;;;0.8;0.8;;;;;;;14.23;93.61719;933.0944;;;;
2022/06/09 03:15:41;;;;;;;0.8;0.8;;;;;;;14.18;93.88184;933.1373;;;;
2022/06/09 03:18:07;;;;;;;1.1;1;;;;;;;14.04;93.05859;933.0358;;;;
2022/06/09 03:20:35;;;;;;;2.7;0.8;;;;;;;13.77;95.0625;933.0038;;;;
2022/06/09 03:22:59;;;;;;;1;0.8;;;;;;;13.85;95.86035;933.0905;;;;
2022/06/09 03:25:25;;;;;;;1;0.7;;;;;;;13.95;95.91699;933.1062;;;;
2022/06/09 03:27:50;;;;;;;1.1;0.9;;;;;;;13.99;95.78809;933.0977;;;;
2022/06/09 03:30:16;;;;;;;1;0.7;;;;;;;14.14;95.2793;933.1121;;;;
2022/06/09 03:32:41;;;;;;;1;0.9;;;;;;;14.12;95.0127;933.1147;;;;
2022/06/09 03:35:14;;;;;;;0.8;0.8;;;;;;;14.06;93.91504;933.1531;;;;
2022/06/09 03:37:39;;;;;;;0.8;0.6;;;;;;;13.9;95.63086;933.1035;;;;
2022/06/09 03:40:04;;;;;;;0.8;0.7;;;;;;;13.92;95.70313;933.0665;;;;
2022/06/09 03:42:31;;;;;;;0.6;0.6;;;;;;;13.88;95.99512;933.0693;;;;
2022/06/09 03:44:56;;;;;;;1.1;0.8;;;;;;;13.9;95.53613;933.0355;;;;
2022/06/09 03:47:22;;;;;;;1.6;0.6;;;;;;;13.98;95.42773;933.0737;;;;
2022/06/09 03:49:46;;;;;;;0.8;0.7;;;;;;;13.91;95.94336;933.0474;;;;
2022/06/09 03:52:12;;;;;;;1.9;0.7;;;;;;;13.88;95.77637;933.1029;;;;
2022/06/09 03:54:37;;;;;;;1.1;0.6;;;;;;;13.95;95.50391;933.1389;;;;
2022/06/09 03:57:04;;;;;;;0.7;0.7;;;;;;;13.91;95.27539;933.0938;;;;
2022/06/09 03:59:29;;;;;;;0.8;0.8;;;;;;;13.91;95.69043;933.1226;;;;
2022/06/09 04:02:31;;;;;;;1.2;1.1;;;;;;;13.98;95.15137;933.1145;;;;
2022/06/09 04:04:56;;;;;;;1;1;;;;;;;14.08;94.92188;933.1496;;;;
2022/06/09 04:07:23;;;;;;;1.4;0.7;;;;;;;14.1;95.09863;933.2463;;;;
2022/06/09 04:09:48;;;;;;;1.2;0.9;;;;;;;14.14;94.49609;933.233;;;;
2022/06/09 04:12:16;;;;;;;1;0.8;;;;;;;14.08;94.28711;933.2442;;;;
2022/06/09 04:14:42;;;;;;;1;0.8;;;;;;;13.78;94.77637;933.259;;;;
2022/06/09 04:17:06;;;;;;;2.5;0.7;;;;;;;13.63;96.73242;933.3055;;;;
2022/06/09 04:19:31;;;;;;;1.1;0.9;;;;;;;13.79;96.52734;933.3709;;;;
2022/06/09 04:21:56;;;;;;;0.8;0.8;;;;;;;13.88;96.31445;933.4183;;;;
2022/06/09 04:24:21;;;;;;;0.7;0.7;;;;;;;13.97;96.53223;933.3059;;;;
2022/06/09 04:26:46;;;;;;;1.1;1;;;;;;;13.99;95.64063;933.4714;;;;
2022/06/09 04:29:13;;;;;;;0.7;0.7;;;;;;;14.07;94.49414;933.3915;;;;
2022/06/09 04:31:37;;;;;;;0.9;0.8;;;;;;;14.13;94.48242;933.3796;;;;
2022/06/09 04:34:02;;;;;;;2.8;1.3;;;;;;;14.17;94.45801;933.4088;;;;
2022/06/09 04:36:28;;;;;;;1.3;0.6;;;;;;;14.21;94.2793;933.4812;;;;
2022/06/09 04:38:53;;;;;;;2.2;0.8;;;;;;;14.28;94.81543;933.4917;;;;
2022/06/09 04:41:18;;;;;;;2;0.8;;;;;;;14.27;94.83691;933.5062;;;;
2022/06/09 04:43:44;;;;;;;1.2;0.9;;;;;;;14.33;95.08984;933.4487;;;;
2022/06/09 04:46:08;;;;;;;1;0.8;;;;;;;14.43;94.56055;933.4849;;;;
2022/06/09 04:48:36;;;;;;;1.6;0.7;;;;;;;14.4;94.36914;933.5255;;;;
2022/06/09 04:51:01;;;;;;;0.5;0.5;;;;;;;14.48;93.82129;933.5578;;;;
2022/06/09 04:53:27;;;;;;;2.5;1.2;;;;;;;14.56;92.96289;933.5144;;;;
2022/06/09 04:55:52;;;;;;;1;0.9;;;;;;;14.59;92.55371;933.5773;;;;
2022/06/09 04:58:18;;;;;;;1.1;1;;;;;;;14.59;93.03809;933.5244;;;;
2022/06/09 05:00:43;;;;;;;1.2;0.8;;;;;;;14.6;92.87891;933.622;;;;
2022/06/09 05:03:11;;;;;;;1.2;1.1;;;;;;;14.57;92.89844;933.6127;;;;
2022/06/09 05:05:35;;;;;;;1;0.9;;;;;;;14.61;92.35059;933.6251;;;;
2022/06/09 05:08:00;;;;;;;1.2;1.1;;;;;;;14.56;92.2832;933.6409;;;;
2022/06/09 05:10:26;;;;;;;1.3;0.8;;;;;;;14.43;92.46387;933.6538;;;;
2022/06/09 05:12:50;;;;;;;0.9;0.7;;;;;;;14.43;92.98242;933.6953;;;;
2022/06/09 05:15:15;;;;;;;1.8;0.8;;;;;;;14.43;92.77539;933.7236;;;;
2022/06/09 05:17:41;;;;;;;1;0.9;;;;;;;14.39;93.54883;933.7659;;;;
2022/06/09 05:20:06;;;;;;;1.5;0.7;;;;;;;14.42;93.5332;933.7417;;;;
2022/06/09 05:22:31;;;;;;;2.5;1;;;;;;;14.43;93.83496;933.7778;;;;
2022/06/09 05:24:59;;;;;;;1.3;0.9;;;;;;;14.42;94.24609;933.8436;;;;
2022/06/09 05:27:22;;;;;;;1.2;0.7;;;;;;;14.48;93.61426;933.8535;;;;
2022/06/09 05:29:49;;;;;;;2.1;0.8;;;;;;;14.46;94.26563;933.8635;;;;
2022/06/09 05:32:14;;;;;;;1.8;1.1;;;;;;;14.42;94.70703;933.8805;;;;
2022/06/09 05:34:41;;;;;;;0.6;0.6;;;;;;;14.44;94.03125;933.8092;;;;
2022/06/09 05:37:06;;;;;;;1;1;;;;;;;14.51;93.62012;933.8884;;;;
2022/06/09 05:46:46;;;;;;;0.9;0.9;;;;;;;14.61;93.94141;933.9928;;;;
2022/06/09 05:49:13;;;;;;;1.3;1.2;;;;;;;14.72;93.59766;934.0269;;;;
2022/06/09 05:51:38;;;;;;;2.3;1.3;;;;;;;14.75;93.13086;934.1252;;;;
2022/06/09 05:54:03;;;;;;;0.7;0.7;;;;;;;14.76;92.46387;934.1635;;;;
2022/06/09 05:56:28;;;;;;;2.3;1.1;;;;;;;14.71;92.71973;934.1945;;;;
2022/06/09 05:58:54;;;;;;;0.8;0.7;;;;;;;14.8;92.11426;934.1486;;;;
2022/06/09 06:01:21;;;;;;;0.6;0.6;;;;;;;14.89;90.87598;934.2198;;;;
2022/06/09 06:03:46;;;;;;;0.6;0.6;;;;;;;14.86;90.93945;934.1928;;;;
2022/06/09 06:08:37;;;;;;;0.9;0.8;;;;;;;14.86;90.74316;934.2386;;;;
2022/06/09 06:11:03;;;;;;;0.7;0.7;;;;;;;14.9;91.07617;934.2236;;;;
2022/06/09 06:13:28;;;;;;;2;0.8;;;;;;;14.87;92.2002;934.2712;;;;
2022/06/09 06:15:55;;;;;;;1;0.7;;;;;;;14.94;90.1377;934.2977;;;;
2022/06/09 06:18:19;;;;;;;1.5;0.6;;;;;;;14.86;89.61328;934.3387;;;;
2022/06/09 06:20:45;;;;;;;0.8;0.7;;;;;;;14.95;90.34668;934.2693;;;;
2022/06/09 06:23:11;;;;;;;0.9;0.8;;;;;;;14.94;90.20703;934.4307;;;;
2022/06/09 06:25:37;;;;;;;0.9;0.6;;;;;;;14.76;90.07715;934.3767;;;;
2022/06/09 06:28:02;;;;;;;0.7;0.6;;;;;;;14.6;91.3252;934.493;;;;
2022/06/09 06:30:29;;;;;;;0.8;0.5;;;;;;;14.4;91.30469;934.4924;;;;
2022/06/09 06:32:55;;;;;;;0.4;0.3;;;;;;;14.33;91.02441;934.5508;;;;
2022/06/09 06:35:20;;;;;;;1.8;0.4;;;;;;;14.23;84.57813;934.5928;;;;
2022/06/09 06:37:45;;;;;;;0.8;0.3;;;;;;;14.11;83.7959;934.6008;;;;
2022/06/09 06:40:10;;;;;;;1.5;0.3;;;;;;;14.04;89.37793;934.7297;;;;
2022/06/09 06:42:35;;;;;;;1.1;1;;;;;;;14.25;90.58301;934.7703;;;;
2022/06/09 06:45:02;;;;;;;1.9;0.8;;;;;;;14.39;92.10938;934.8448;;;;
2022/06/09 06:47:28;;;;;;;1.5;0.5;;;;;;;14.3;87.12598;934.93;;;;
2022/06/09 06:49:53;;;;;;;0.5;0.4;;;;;;;14.46;87.09863;934.9425;;;;
2022/06/09 06:52:18;;;;;;;0.9;0.6;;;;;;;14.16;87.96289;935.0375;;;;
2022/06/09 06:54:44;;;;;;;0.5;0.5;;;;;;;13.96;89.84277;935.0496;;;;
2022/06/09 06:57:10;;;;;;;0.3;0.3;;;;;;;13.91;88.11719;935.0851;;;;
2022/06/09 06:59:37;;;;;;;2.2;0.8;;;;;;;14.1;88.03027;935.1951;;;;
2022/06/09 07:02:01;;;;;;;0.5;0.5;;;;;;;14.05;87.9043;935.2163;;;;
2022/06/09 07:04:27;;;;;;;0.2;0.2;;;;;;;13.48;81.58398;935.1647;;;;
2022/06/09 07:06:52;;;;;;;0.3;0.3;;;;;;;13.27;86.66797;935.2697;;;;
2022/06/09 07:09:19;;;;;;;0.9;0.2;;;;;;;13.28;85.95898;935.2824;;;;
2022/06/09 07:11:45;;;;;;;0.5;0.2;;;;;;;13.3;85.53711;935.3063;;;;
2022/06/09 07:14:09;;;;;;;2.3;0.1;;;;;;;13;86.86621;935.2479;;;;
2022/06/09 07:16:35;;;;;;;0.5;0.1;;;;;;;12.76;83.00879;935.3077;;;;
2022/06/09 07:19:01;;;;;;;0.9;0.3;;;;;;;12.49;88.49707;935.3611;;;;
2022/06/09 07:21:26;;;;;;;0.2;0.2;;;;;;;12.55;83.41504;935.3538;;;;
2022/06/09 07:23:52;;;;;;;0.7;0.1;;;;;;;12.61;83.25391;935.3918;;;;
2022/06/09 07:26:17;;;;;;;0.4;0.1;;;;;;;12.52;85.55469;935.4344;;;;
2022/06/09 07:28:44;;;;;;;0.1;0.1;;;;;;;12.45;83.91211;935.5153;;;;
2022/06/09 07:31:10;;;;;;;0;0;;;;;;;12.5;80.30762;935.5303;;;;
2022/06/09 07:33:35;;;;;;;0.7;0.1;;;;;;;12.59;83.2959;935.4973;;;;
2022/06/09 07:36:00;;;;;;;0.2;0.2;;;;;;;12.74;82.56934;935.3901;;;;
2022/06/09 07:38:26;;;;;;;0.6;0.2;;;;;;;12.76;80.83887;935.4267;;;;
2022/06/09 07:40:51;;;;;;;0.3;0.3;;;;;;;12.86;81.20117;935.4674;;;;
2022/06/09 07:43:19;;;;;;;1.1;0.6;;;;;;;13.05;82.4209;935.5037;;;;
2022/06/09 07:45:43;;;;;;;1.9;0.6;;;;;;;13.07;82.44922;935.5844;;;;
2022/06/09 07:48:09;;;;;;;0.6;0.3;;;;;;;13.04;85.21973;935.5709;;;;
2022/06/09 07:50:34;;;;;;;0.3;0.3;;;;;;;13.36;85.80078;935.5458;;;;
2022/06/09 07:53:00;;;;;;;0.9;0.3;;;;;;;13.22;85.63477;935.6418;;;;
2022/06/09 07:55:25;;;;;;;0.2;0.2;;;;;;;13.42;85.81348;935.649;;;;
2022/06/09 07:57:51;;;;;;;0.2;0.2;;;;;;;13.55;86.05664;935.6298;;;;
2022/06/09 08:00:17;;;;;;;0.6;0.5;;;;;;;13.72;85.00879;935.6914;;;;
2022/06/09 08:02:43;;;;;;;0.3;0.3;;;;;;;13.78;80.56934;935.6942;;;;
2022/06/09 08:05:09;;;;;;;0.4;0.4;;;;;;;13.57;82.875;935.6929;;;;
2022/06/09 08:07:34;;;;;;;0.3;0.3;;;;;;;13.5;80.55078;935.6765;;;;
2022/06/09 08:09:59;;;;;;;0.2;0.2;;;;;;;13.75;82.6084;935.6792;;;;
2022/06/09 08:12:25;;;;;;;0.1;0.1;;;;;;;13.68;77.89258;935.7244;;;;
2022/06/09 08:14:50;;;;;;;0.1;0.1;;;;;;;13.92;82.55078;935.7863;;;;
2022/06/09 08:17:17;;;;;;;0.2;0.2;;;;;;;14.11;80.51465;935.7619;;;;
2022/06/09 08:19:42;;;;;;;0.2;0.2;;;;;;;14;78.65332;935.8281;;;;
2022/06/09 08:22:08;;;;;;;0.9;0.4;;;;;;;14.27;82.50391;935.9017;;;;
2022/06/09 08:24:34;;;;;;;1;0.4;;;;;;;14.37;79.49219;935.8521;;;;
2022/06/09 08:26:58;;;;;;;0.3;0.3;;;;;;;14.58;80.68164;935.865;;;;
2022/06/09 08:29:23;;;;;;;0.3;0.3;;;;;;;14.79;77.83789;935.7943;;;;
2022/06/09 08:31:49;;;;;;;0.3;0.3;;;;;;;14.66;75.50977;935.8702;;;;
2022/06/09 08:34:14;;;;;;;0.3;0.2;;;;;;;14.76;77.26855;935.954;;;;
2022/06/09 08:36:39;;;;;;;1;0.6;;;;;;;14.84;81.67578;935.9367;;;;
2022/06/09 08:39:05;;;;;;;0.2;0.2;;;;;;;14.66;81.50391;936.02;;;;
2022/06/09 08:41:31;;;;;;;0.4;0.4;;;;;;;14.88;82.03027;935.945;;;;
2022/06/09 08:43:56;;;;;;;0.6;0.2;;;;;;;14.94;79.74512;936.0142;;;;
2022/06/09 08:46:21;;;;;;;1;0.5;;;;;;;15.05;80.77051;936.0051;;;;
2022/06/09 08:48:46;;;;;;;0.6;0.4;;;;;;;15.05;81.98047;936.0854;;;;
2022/06/09 08:51:11;;;;;;;0.5;0.4;;;;;;;14.94;78.7998;936.1537;;;;
2022/06/09 08:53:37;;;;;;;0.5;0.4;;;;;;;15.07;79.86035;936.1638;;;;
2022/06/09 08:56:02;;;;;;;0.2;0.2;;;;;;;14.93;75.20898;936.1594;;;;
2022/06/09 08:58:27;;;;;;;0.3;0.3;;;;;;;14.95;78.16699;936.1559;;;;
2022/06/09 09:00:52;;;;;;;0.6;0.2;;;;;;;14.86;77.02051;936.1986;;;;
2022/06/09 09:03:19;;;;;;;0.4;0.3;;;;;;;14.95;77.68262;936.2394;;;;
2022/06/09 09:05:44;;;;;;;0.3;0.3;;;;;;;15;77.65625;936.2685;;;;
2022/06/09 09:08:09;;;;;;;0.8;0.4;;;;;;;15.09;80.20996;936.287;;;;
2022/06/09 09:10:35;;;;;;;1.3;0.4;;;;;;;15.1;78.38867;936.3198;;;;
2022/06/09 09:13:00;;;;;;;1.9;0.8;;;;;;;14.67;77.93262;936.3582;;;;
2022/06/09 09:15:25;;;;;;;0.2;0.2;;;;;;;14.71;76.77441;936.373;;;;
2022/06/09 09:17:50;;;;;;;0.4;0.3;;;;;;;14.76;78.68652;936.3411;;;;
2022/06/09 09:20:18;;;;;;;0.4;0.4;;;;;;;14.98;78.29883;936.3722;;;;
2022/06/09 09:22:43;;;;;;;0.3;0.3;;;;;;;15.09;74.93945;936.392;;;;
2022/06/09 09:25:08;;;;;;;0.3;0.3;;;;;;;15.13;77.95801;936.337;;;;
2022/06/09 09:27:33;;;;;;;1.8;0.3;;;;;;;15.26;78.8916;936.4442;;;;
2022/06/09 09:29:58;;;;;;;0.4;0.2;;;;;;;15.68;79.69531;936.456;;;;
2022/06/09 09:32:24;;;;;;;0.2;0.1;;;;;;;16.06;76.45801;936.3766;;;;
2022/06/09 09:34:50;;;;;;;0.8;0.7;;;;;;;16.39;77.37109;936.3936;;;;
2022/06/09 09:37:16;;;;;;;0.4;0.4;;;;;;;16.62;75.94141;936.4033;;;;
2022/06/09 09:39:41;;;;;;;0.9;0.5;;;;;;;16.29;78.18652;936.4698;;;;
2022/06/09 09:42:06;;;;;;;0.3;0.3;;;;;;;16.49;75.43164;936.4751;;;;
2022/06/09 09:44:31;;;;;;;0.5;0.3;;;;;;;16.53;77.47852;936.5555;;;;
2022/06/09 09:46:56;;;;;;;1.8;0.5;;;;;;;16.46;75.42773;936.5488;;;;
2022/06/09 09:49:22;;;;;;;0.3;0.3;;;;;;;15.63;76.77637;936.5722;;;;
2022/06/09 09:51:46;;;;;;;0.3;0.3;;;;;;;15.69;77.66406;936.6189;;;;
2022/06/09 09:54:11;;;;;;;2.5;1.8;;;;;;;15.74;79.36035;936.6069;;;;
2022/06/09 09:56:37;;;;;;;2.4;1.7;;;;;;;15.64;81.49121;936.678;;;;
2022/06/09 09:59:02;;;;;;;4.1;1.9;;;;;;;15.47;81.41309;936.7133;;;;
2022/06/09 10:01:27;;;;;;;0.8;0.2;;;;;;;15.29;82.08398;936.747;;;;
2022/06/09 10:08:42;;;;;;;1.7;0.3;;;;;;;15.78;80.78809;936.7444;;;;
2022/06/09 10:11:53;;;;;;;0.5;0.4;;;;;;;15.85;80.34961;936.7679;;;;
2022/06/09 10:13:33;;;;;;;1.1;0.7;;;;;;;15.93;80.49316;936.7885;;;;
2022/06/09 10:15:58;;;;;;;1.5;1.1;;;;;;;16;81.58203;936.798;;;;
2022/06/09 10:18:23;;;;;;;0.9;0.5;;;;;;;16.14;78.00977;936.7747;;;;
2022/06/09 10:20:48;;;;;;;0.3;0.3;;;;;;;16.21;79.14453;936.8283;;;;
2022/06/09 10:23:16;;;;;;;0.6;0.4;;;;;;;16.18;75.21777;936.889;;;;
2022/06/09 10:25:39;;;;;;;0.8;0.6;;;;;;;15.94;79.67383;936.9041;;;;
2022/06/09 10:28:04;;;;;;;0.8;0.6;;;;;;;15.69;81.1416;936.9271;;;;
2022/06/09 10:30:29;;;;;;;0.5;0.5;;;;;;;15.58;80.23242;936.9286;;;;
2022/06/09 10:32:54;;;;;;;0.6;0.4;;;;;;;15.86;78.72266;936.9324;;;;
2022/06/09 10:35:19;;;;;;;0.8;0.5;;;;;;;15.98;79.21973;936.9469;;;;
2022/06/09 10:37:44;;;;;;;0.5;0.3;;;;;;;16.03;78.06055;936.9939;;;;
2022/06/09 10:40:09;;;;;;;0.4;0.4;;;;;;;16.13;77.5;936.9563;;;;
2022/06/09 10:42:35;;;;;;;0.8;0.4;;;;;;;16;78.15918;936.9514;;;;
2022/06/09 10:45:00;;;;;;;0.7;0.3;;;;;;;16.15;81.45801;936.9448;;;;
2022/06/09 10:57:05;;;;;;;0.4;0.4;;;;;;;16.41;79.21582;936.943;;;;
2022/06/09 10:59:31;;;;;;;1.1;0.6;;;;;;;16.81;77.07324;936.9462;;;;
2022/06/09 11:01:56;;;;;;;0.7;0.4;;;;;;;16.72;78.11328;936.9944;;;;
2022/06/09 11:04:21;;;;;;;0.6;0.4;;;;;;;16.74;76.48438;936.9989;;;;
2022/06/09 11:06:49;;;;;;;0.2;0.2;;;;;;;16.85;74.70801;936.9612;;;;
2022/06/09 11:09:11;;;;;;;0.9;0.4;;;;;;;16.87;74.51465;936.9392;;;;
2022/06/09 11:11:37;;;;;;;0.7;0.4;;;;;;;16.61;76.29883;936.9185;;;;
2022/06/09 11:15:00;;;;;;;0.5;0.5;;;;;;;16.41;77.51563;936.9308;;;;
2022/06/09 11:17:26;;;;;;;0.4;0.4;;;;;;;16.27;78.19434;936.9474;;;;
2022/06/09 11:19:51;;;;;;;0.8;0.5;;;;;;;15.96;79.52734;936.9472;;;;
2022/06/09 11:22:16;;;;;;;0.4;0.4;;;;;;;16.07;79.70898;936.95;;;;
2022/06/09 11:24:41;;;;;;;0.4;0.4;;;;;;;16.15;80.35742;936.9843;;;;
2022/06/09 11:27:06;;;;;;;0.3;0.3;;;;;;;16;77.98438;937.0254;;;;
2022/06/09 11:29:31;;;;;;;0.4;0.3;;;;;;;16.09;76.20801;936.9554;;;;
2022/06/09 11:31:57;;;;;;;0.8;0.4;;;;;;;16.03;78.26855;937.0035;;;;
2022/06/09 11:34:22;;;;;;;0.7;0.4;;;;;;;15.97;80.92773;937.0634;;;;
2022/06/09 11:36:47;;;;;;;0.4;0.3;;;;;;;15.98;80.4668;937.1155;;;;
2022/06/09 11:39:12;;;;;;;0.5;0.3;;;;;;;16.16;78.37207;937.1311;;;;
2022/06/09 11:41:38;;;;;;;0.5;0.4;;;;;;;15.95;75.54883;937.0662;;;;
2022/06/09 11:44:03;;;;;;;1;0.5;;;;;;;16.12;76.90625;937.1012;;;;
2022/06/09 11:46:28;;;;;;;0.4;0.4;;;;;;;16.1;81.11328;937.0725;;;;
2022/06/09 11:48:55;;;;;;;0.4;0.3;;;;;;;16.36;77.06543;937.0715;;;;
2022/06/09 11:51:20;;;;;;;0.9;0.3;;;;;;;16.18;78.13379;937.1163;;;;
2022/06/09 11:53:46;;;;;;;0.4;0.4;;;;;;;16.15;74.11426;937.0717;;;;
2022/06/09 11:56:11;;;;;;;0.4;0.2;;;;;;;16.21;75.29297;937.0951;;;;
2022/06/09 11:58:36;;;;;;;0.4;0.4;;;;;;;15.93;76.06543;937.0383;;;;
2022/06/09 12:01:01;;;;;;;0.3;0.3;;;;;;;15.73;76.71094;936.9764;;;;
2022/06/09 12:03:26;;;;;;;0.2;0.2;;;;;;;15.89;76.30078;937.0003;;;;
2022/06/09 12:05:52;;;;;;;0.4;0.3;;;;;;;16.06;76.58496;937.0256;;;;
2022/06/09 12:08:17;;;;;;;0.7;0.4;;;;;;;16.15;76.4502;936.9738;;;;
2022/06/09 12:10:42;;;;;;;0.2;0.2;;;;;;;16.3;74.09375;937.0417;;;;
2022/06/09 12:13:07;;;;;;;0.2;0.2;;;;;;;16.33;75.27832;937.0607;;;;
2022/06/09 12:15:34;;;;;;;0.5;0.3;;;;;;;16.63;74.16016;937.0728;;;;
2022/06/09 12:18:01;;;;;;;0.5;0.4;;;;;;;16.82;72.25977;937.1772;;;;
2022/06/09 12:20:24;;;;;;;0.9;0.3;;;;;;;16.68;71.85156;937.1462;;;;
2022/06/09 12:22:49;;;;;;;1.3;0.2;;;;;;;17.09;70.92188;937.1948;;;;
2022/06/09 12:25:17;;;;;;;0.2;0.2;;;;;;;17.11;70.92773;937.1323;;;;
2022/06/09 12:27:39;;;;;;;0.3;0.3;;;;;;;17.44;71.06152;937.1221;;;;
2022/06/09 12:30:04;;;;;;;0.3;0.3;;;;;;;17.69;68.62988;937.1929;;;;
2022/06/09 12:32:30;;;;;;;0.2;0.1;;;;;;;17.9;67.99902;937.189;;;;
2022/06/09 12:34:55;;;;;;;0.8;0.4;;;;;;;17.74;69.80957;937.1508;;;;
2022/06/09 12:37:20;;;;;;;1.5;0.4;;;;;;;17.82;69.50879;937.2462;;;;
2022/06/09 12:39:47;;;;;;;0.4;0.4;;;;;;;17.92;68.49121;937.2393;;;;
2022/06/09 12:42:12;;;;;;;0.4;0.4;;;;;;;17.89;68.24316;937.3052;;;;
2022/06/09 12:44:37;;;;;;;0.5;0.5;;;;;;;17.79;66.85742;937.2706;;;;
2022/06/09 12:47:02;;;;;;;1;0.7;;;;;;;17.58;68.50684;937.2533;;;;
2022/06/09 12:49:27;;;;;;;0.8;0.4;;;;;;;17.54;68.67578;937.3287;;;;
2022/06/09 12:51:52;;;;;;;0.7;0.4;;;;;;;17.58;70.5498;937.3258;;;;
2022/06/09 12:54:17;;;;;;;1;0.6;;;;;;;17.54;70.93848;937.3175;;;;
2022/06/09 12:56:42;;;;;;;1.1;0.5;;;;;;;17.56;69.88477;937.3792;;;;
2022/06/09 12:59:10;;;;;;;2.2;0.7;;;;;;;17.32;68.75781;937.4058;;;;
2022/06/09 13:01:35;;;;;;;0.4;0.4;;;;;;;17.43;69.44727;937.43;;;;
2022/06/09 13:04:00;;;;;;;1.1;0.4;;;;;;;17.26;67.61133;937.5068;;;;
2022/06/09 13:06:25;;;;;;;0.6;0.4;;;;;;;17.07;71.73047;937.4864;;;;
2022/06/09 13:08:51;;;;;;;0.3;0.3;;;;;;;17;69.56445;937.4816;;;;
2022/06/09 13:11:16;;;;;;;0.4;0.3;;;;;;;16.96;69.44238;937.5714;;;;
2022/06/09 13:13:41;;;;;;;0.7;0.4;;;;;;;16.93;69.64551;937.6074;;;;
2022/06/09 13:16:07;;;;;;;0.5;0.5;;;;;;;16.83;72.22461;937.6717;;;;
2022/06/09 13:18:33;;;;;;;1;0.4;;;;;;;16.88;72.9043;937.7417;;;;
2022/06/09 13:20:58;;;;;;;0.4;0.4;;;;;;;16.84;72.52734;937.7874;;;;
2022/06/09 13:23:23;;;;;;;1;0.5;;;;;;;16.96;74.37891;937.8047;;;;
2022/06/09 13:25:48;;;;;;;0.5;0.4;;;;;;;17.14;73.13477;937.8399;;;;
2022/06/09 13:28:13;;;;;;;0.4;0.4;;;;;;;17.31;69.90332;937.8334;;;;
2022/06/09 13:30:38;;;;;;;1;0.5;;;;;;;17.48;70;937.8396;;;;
2022/06/09 13:33:03;;;;;;;1.4;0.4;;;;;;;17.56;67.40332;937.9073;;;;
2022/06/09 13:35:28;;;;;;;0.9;0.5;;;;;;;17.19;66.92773;937.9341;;;;
2022/06/09 13:37:53;;;;;;;1;0.5;;;;;;;17.17;66.94824;937.903;;;;
2022/06/09 13:40:19;;;;;;;1.2;0.6;;;;;;;17.14;64.4043;937.8947;;;;
2022/06/09 13:42:44;;;;;;;2.9;0.8;;;;;;;17.28;69.5625;937.8645;;;;
2022/06/09 13:45:10;;;;;;;1.8;0.7;;;;;;;17.28;70.47852;937.937;;;;
2022/06/09 13:47:37;;;;;;;1.2;0.5;;;;;;;17.39;70.63477;937.9028;;;;
2022/06/09 13:50:03;;;;;;;2.1;0.7;;;;;;;17.28;71.5332;937.8911;;;;
2022/06/09 13:52:29;;;;;;;1.3;0.8;;;;;;;17.39;71.85254;937.8167;;;;
2022/06/09 13:54:54;;;;;;;0.4;0.4;;;;;;;17.45;73.24512;937.853;;;;
2022/06/09 13:57:20;;;;;;;0.2;0.2;;;;;;;17.34;68.52734;937.923;;;;
2022/06/09 13:59:46;;;;;;;1.5;0.5;;;;;;;17.46;69.5332;937.8842;;;;
2022/06/09 14:02:11;;;;;;;1.3;0.5;;;;;;;17.81;68.625;937.8928;;;;
2022/06/09 14:04:37;;;;;;;0.9;0.2;;;;;;;18.09;64.67383;937.9113;;;;
2022/06/09 14:07:02;;;;;;;0.7;0.4;;;;;;;18.23;65.5752;937.9355;;;;
2022/06/09 14:09:27;;;;;;;1.7;0.7;;;;;;;18.54;63.78516;937.8928;;;;
2022/06/09 14:11:53;;;;;;;0.8;0.4;;;;;;;18.69;59.9209;937.9152;;;;
2022/06/09 14:14:18;;;;;;;1;0.7;;;;;;;18.25;62.31348;937.8197;;;;
2022/06/09 14:16:45;;;;;;;1.5;0.5;;;;;;;18.13;66.60645;937.943;;;;
2022/06/09 14:19:10;;;;;;;2.7;0.7;;;;;;;17.96;64.35156;937.9554;;;;
2022/06/09 14:21:35;;;;;;;0.7;0.4;;;;;;;17.9;66.62988;937.9719;;;;
2022/06/09 14:24:03;;;;;;;0.8;0.4;;;;;;;18.04;66.1875;937.9357;;;;
2022/06/09 14:26:27;;;;;;;0.6;0.4;;;;;;;18.11;64.53516;937.9481;;;;
2022/06/09 14:28:52;;;;;;;0.3;0.3;;;;;;;18.05;66.02441;937.9025;;;;
2022/06/09 14:31:17;;;;;;;2.3;0.5;;;;;;;18.05;62.87793;937.9073;;;;
2022/06/09 14:33:42;;;;;;;0.5;0.4;;;;;;;17.86;63.9541;937.8937;;;;
2022/06/09 14:36:08;;;;;;;0.6;0.4;;;;;;;17.89;63.36621;937.902;;;;
2022/06/09 14:38:33;;;;;;;1.2;0.4;;;;;;;18.17;64.24121;937.876;;;;
2022/06/09 14:40:59;;;;;;;0.9;0.5;;;;;;;18.33;63.89453;937.9277;;;;